createdAt,value
2022-10-29T00:03:34.643Z,181.83784
2022-10-29T00:08:36.095Z,182.75969
2022-10-29T00:13:38.374Z,180.01533
2022-10-29T00:18:40.305Z,175.57895
2022-10-29T00:23:42.096Z,180.92308
2022-10-29T00:28:43.860Z,179.1145
2022-10-29T00:33:45.607Z,178.22053
2022-10-29T00:38:47.103Z,176.45283
2022-10-29T00:43:49.308Z,169.64103
2022-10-29T00:48:51.052Z,168.81752
2022-10-29T00:53:52.921Z,167.18841
2022-10-29T00:58:54.725Z,166.38267
2022-10-29T01:03:56.605Z,156.41379
2022-10-29T01:08:58.437Z,170.47059
2022-10-29T01:14:00.631Z,177.33333
2022-10-29T01:19:02.720Z,180.92308
2022-10-29T01:24:04.945Z,186.51969
2022-10-29T01:29:07.008Z,187.47826
2022-10-29T01:34:08.902Z,181.83784
2022-10-29T01:39:10.649Z,180.01533
2022-10-29T01:44:12.785Z,175.57895
2022-10-29T01:49:14.563Z,172.14815
2022-10-29T01:54:16.324Z,168
2022-10-29T01:59:28.909Z,162.43972
2022-10-29T02:04:45.554Z,163.21708
2022-10-29T02:09:47.399Z,161.66784
2022-10-29T02:14:49.345Z,164
2022-10-29T02:19:51.067Z,172.99628
2022-10-29T02:24:52.756Z,172.14815
2022-10-29T02:29:54.438Z,173.85075
2022-10-29T02:34:56.230Z,165.58273
2022-10-29T02:39:57.754Z,166.38267
2022-10-29T02:44:59.749Z,154.9589
2022-10-29T02:50:01.400Z,162.43972
2022-10-29T02:55:03.111Z,160.14035
2022-10-29T03:00:05.029Z,160.90141
2022-10-29T03:05:06.672Z,165.58273
2022-10-29T03:10:08.352Z,167.18841
2022-10-29T03:15:10.592Z,171.30627
2022-10-29T03:20:12.343Z,175.57895
2022-10-29T03:25:14.221Z,173.85075
2022-10-29T03:30:16.083Z,171.30627
2022-10-29T03:35:17.922Z,162.43972
2022-10-29T03:40:19.879Z,163.21708
2022-10-29T03:45:21.655Z,170.47059
2022-10-29T03:50:23.117Z,172.14815
2022-10-29T03:55:24.537Z,173.85075
2022-10-29T04:00:26.234Z,171.30627
2022-10-29T04:05:27.678Z,173.85075
2022-10-29T04:10:29.133Z,168.81752
2022-10-29T04:15:30.864Z,168.81752
2022-10-29T04:21:05.853Z,173.85075
2022-10-29T04:32:32.667Z,179.1145
2022-10-29T04:37:34.155Z,166.38267
2022-10-29T04:42:35.796Z,164
2022-10-29T04:47:37.815Z,157.14879
2022-10-29T04:52:39.663Z,163.21708
2022-10-29T04:57:41.276Z,169.64103
2022-10-29T05:02:43.199Z,157.88889
2022-10-29T05:07:44.966Z,165.58273
2022-10-29T05:12:46.521Z,164
2022-10-29T05:17:48.315Z,162.43972
2022-10-29T05:22:49.829Z,157.88889
2022-10-29T05:27:51.329Z,157.88889
2022-10-29T05:32:53.283Z,159.38462
2022-10-29T05:37:55.041Z,154.9589
2022-10-29T05:42:56.832Z,155.68385
2022-10-29T05:47:58.979Z,148.65116
2022-10-29T05:53:00.484Z,150.02007
2022-10-29T05:58:01.956Z,152.10811
2022-10-29T06:03:03.872Z,152.81356
2022-10-29T06:08:05.567Z,157.14879
2022-10-29T06:13:07.304Z,131.80488
2022-10-29T06:18:08.928Z,141.4359
2022-10-29T06:23:10.497Z,155.68385
2022-10-29T06:28:12.061Z,164.78853
2022-10-29T06:33:13.691Z,162.43972
2022-10-29T06:38:15.182Z,171.30627
2022-10-29T06:43:16.837Z,162.43972
2022-10-29T06:48:22.009Z,168
2022-10-29T06:53:23.755Z,174.71161
2022-10-29T06:58:25.262Z,160.90141
2022-10-29T07:03:27.108Z,166.38267
2022-10-29T07:08:28.618Z,154.9589
2022-10-29T07:13:30.421Z,167.18841
2022-10-29T07:18:32.436Z,169.64103
2022-10-29T07:23:34.233Z,164.78853
2022-10-29T07:28:36.060Z,156.41379
2022-10-29T07:33:37.996Z,161.66784
2022-10-29T07:38:39.749Z,170.47059
2022-10-29T07:43:41.555Z,182.75969
2022-10-29T07:48:43.618Z,177.33333
2022-10-29T07:53:45.611Z,189.41833
2022-10-29T07:58:47.361Z,189.41833
2022-10-29T08:03:49.131Z,190.4
2022-10-29T08:08:50.868Z,198.54545
2022-10-29T08:13:52.620Z,193.39271
2022-10-29T08:18:54.750Z,195.42857
2022-10-29T08:23:56.545Z,211.82609
2022-10-29T08:28:58.372Z,216.56637
2022-10-29T08:34:00.233Z,201.74059
2022-10-29T08:39:02.001Z,210.66667
2022-10-29T08:44:03.819Z,210.66667
2022-10-29T08:49:05.892Z,206.12766
2022-10-29T08:54:29.977Z,200.66667
2022-10-29T08:59:32.517Z,205.01695
2022-10-29T09:04:34.130Z,200.66667
2022-10-29T09:09:35.940Z,210.66667
2022-10-29T09:14:37.755Z,234.56604
2022-10-29T09:19:39.758Z,214.17544
2022-10-29T09:24:41.564Z,182.75969
2022-10-29T09:29:43.346Z,220.23318
2022-10-29T09:34:45.449Z,208.37768
2022-10-29T09:39:47.250Z,227.87097
2022-10-29T09:44:49.094Z,219
2022-10-29T09:49:50.846Z,225.27854
2022-10-29T09:54:52.506Z,208.37768
2022-10-29T09:59:54.282Z,226.56881
2022-10-29T10:04:56.030Z,197.49794
2022-10-29T10:09:57.810Z,210.66667
2022-10-29T10:14:59.443Z,189.41833
2022-10-29T10:20:01.623Z,193.39271
2022-10-29T10:25:03.519Z,180.92308
2022-10-29T10:30:05.146Z,227.87097
2022-10-29T10:35:06.952Z,225.27854
2022-10-29T10:40:08.719Z,233.20188
2022-10-29T10:45:10.614Z,243.02913
2022-10-29T10:50:12.602Z,238.73684
2022-10-29T10:55:14.405Z,258.28571
2022-10-29T11:00:16.305Z,271.65957
2022-10-29T11:05:18.140Z,282.46154
2022-10-29T11:10:19.887Z,280.61202
2022-10-29T11:15:21.681Z,238.73684
2022-10-29T11:20:23.529Z,266.51309
2022-10-29T11:25:25.110Z,273.41176
2022-10-29T11:30:26.617Z,302.13953
2022-10-29T11:35:28.103Z,280.61202
2022-10-29T11:40:29.552Z,302.13953
2022-10-29T11:45:31.124Z,284.33149
2022-10-29T11:50:32.799Z,259.89744
2022-10-29T11:55:34.229Z,306.35294
2022-10-29T12:00:35.684Z,288.13408
2022-10-29T12:05:37.158Z,273.41176
2022-10-29T12:10:38.706Z,266.51309
2022-10-29T12:15:40.175Z,280.61202
2022-10-29T12:20:41.878Z,266.51309
2022-10-29T12:25:43.441Z,268.21053
2022-10-29T12:30:45.146Z,227.87097
2022-10-29T12:35:46.679Z,212.99563
2022-10-29T12:40:48.186Z,288.13408
2022-10-29T12:46:18.610Z,244.4878
2022-10-29T12:51:21.688Z,263.17098
2022-10-29T12:56:23.480Z,268.21053
2022-10-29T13:01:38.367Z,292.0226
2022-10-29T13:06:52.207Z,181.83784
2022-10-29T13:11:53.720Z,258.28571
2022-10-29T13:16:55.196Z,230.51163
2022-10-29T13:21:57.077Z,210.66667
2022-10-29T13:26:58.624Z,214.17544
2022-10-29T13:32:04.564Z,192.3871
2022-10-29T13:37:06.589Z,226.56881
2022-10-29T13:42:08.057Z,245.96078
2022-10-29T13:47:09.649Z,275.1828
2022-10-29T13:52:11.430Z,256.69036
2022-10-29T13:57:12.906Z,290.06742
2022-10-29T14:02:14.609Z,294
2022-10-29T14:07:16.348Z,288.13408
2022-10-29T14:12:18.125Z,263.17098
2022-10-29T14:17:19.857Z,288.13408
2022-10-29T14:22:21.549Z,231.85047
2022-10-29T14:27:23.346Z,250.46766
2022-10-29T14:32:24.822Z,247.44828
2022-10-29T14:37:26.331Z,258.28571
2022-10-29T14:42:27.821Z,261.52577
2022-10-29T14:47:32.380Z,240.15385
2022-10-29T14:52:36.017Z,248.9505
2022-10-29T14:57:37.815Z,276.97297
2022-10-29T15:02:39.902Z,216.56637
2022-10-29T15:07:41.852Z,195.42857
2022-10-29T15:12:43.863Z,211.82609
2022-10-29T15:17:45.633Z,245.96078
2022-10-29T15:22:47.908Z,207.24786
2022-10-29T15:27:49.697Z,163.21708
2022-10-29T15:32:51.513Z,201.74059
2022-10-29T15:37:53.368Z,237.33333
2022-10-29T15:42:55.591Z,229.18519
2022-10-29T15:47:58.284Z,207.24786
2022-10-29T15:53:00.927Z,190.4
2022-10-29T15:58:02.669Z,179.1145
2022-10-29T16:03:04.444Z,190.4
2022-10-29T16:08:06.359Z,225.27854
2022-10-29T16:13:08.205Z,237.33333
2022-10-29T16:18:09.975Z,215.36564
2022-10-29T16:23:11.755Z,222.73303
2022-10-29T16:28:13.792Z,188.44444
2022-10-29T16:33:15.534Z,185.56863
2022-10-29T16:38:17.273Z,164.78853
2022-10-29T16:43:19.057Z,172.14815
2022-10-29T16:48:20.695Z,163.21708
2022-10-29T16:53:22.780Z,173.85075
2022-10-29T16:58:24.604Z,172.99628
2022-10-29T17:03:26.520Z,173.85075
2022-10-29T17:08:28.130Z,172.14815
2022-10-29T17:13:29.553Z,164
2022-10-29T17:18:31.019Z,157.88889
2022-10-29T17:23:33.250Z,154.9589
2022-10-29T17:28:34.782Z,146.63158
2022-10-29T17:33:36.259Z,151.40741
2022-10-29T17:38:37.744Z,145.96721
2022-10-29T17:43:39.558Z,141.4359
2022-10-29T17:48:41.062Z,136.5
2022-10-29T17:53:43.028Z,137.10345
2022-10-29T17:58:44.669Z,137.71069
2022-10-29T18:03:46.343Z,134.12346
2022-10-29T18:08:48.108Z,135.90031
2022-10-29T18:13:49.559Z,135.90031
2022-10-29T18:19:01.576Z,135.90031
2022-10-29T18:24:04.150Z,134.12346
2022-10-29T18:29:05.876Z,130.66667
2022-10-29T18:34:08.031Z,137.10345
2022-10-29T18:39:09.883Z,128.98498
2022-10-29T18:44:11.684Z,135.30435
2022-10-29T18:49:13.523Z,128.43114
2022-10-29T18:54:15.617Z,126.24852
2022-10-29T18:59:17.490Z,122.55072
2022-10-29T19:04:19.167Z,120
2022-10-29T19:09:20.950Z,127.33333
2022-10-29T19:14:22.857Z,128.43114
2022-10-29T19:19:24.646Z,130.66667
2022-10-29T19:24:26.609Z,130.66667
2022-10-29T19:29:28.156Z,131.23404
2022-10-29T19:34:29.801Z,130.66667
2022-10-29T19:39:31.358Z,127.8806
2022-10-29T19:44:32.814Z,118.50425
2022-10-29T19:49:34.195Z,115.11111
2022-10-29T19:54:35.896Z,117.03371
2022-10-29T19:59:37.322Z,112.30601
2022-10-29T20:04:38.769Z,111.3913
2022-10-29T20:09:40.423Z,112.76712
2022-10-29T20:14:41.870Z,112.76712
2022-10-29T20:19:43.431Z,113.23077
2022-10-29T20:24:45.366Z,111.84741
2022-10-29T20:29:46.808Z,111.84741
2022-10-29T20:34:48.299Z,117.03371
2022-10-29T20:39:49.979Z,122.03468
2022-10-29T20:44:51.839Z,126.24852
2022-10-29T20:49:53.685Z,132.3792
2022-10-29T20:54:55.364Z,128.98498
2022-10-29T20:59:56.802Z,135.30435
2022-10-29T21:04:58.528Z,142.07074
2022-10-29T21:10:00.026Z,140.17834
2022-10-29T21:15:01.452Z,142.70968
2022-10-29T21:20:02.877Z,143.35275
2022-10-29T21:25:04.954Z,147.30033
2022-10-29T21:30:06.433Z,146.63158
2022-10-29T21:35:07.917Z,148.65116
2022-10-29T21:40:09.584Z,158.63415
2022-10-29T21:45:11.209Z,163.21708
2022-10-29T21:50:12.832Z,164
2022-10-29T21:55:14.555Z,161.66784
2022-10-29T22:00:16.131Z,158.63415
2022-10-29T22:05:17.617Z,155.68385
2022-10-29T22:10:19.212Z,154.23891
2022-10-29T22:15:20.680Z,150.71141
2022-10-29T22:20:22.179Z,150.02007
2022-10-29T22:25:23.924Z,145.96721
2022-10-29T22:30:25.686Z,147.97351
2022-10-29T22:35:27.160Z,149.33333
2022-10-29T22:40:28.676Z,147.97351
2022-10-29T22:45:30.242Z,144.65147
2022-10-29T22:50:31.764Z,144.65147
2022-10-29T22:55:33.797Z,142.07074
2022-10-29T23:00:35.817Z,143.35275
2022-10-29T23:05:37.351Z,145.30719
2022-10-29T23:10:39.026Z,145.30719
2022-10-29T23:15:40.472Z,150.71141
2022-10-29T23:20:42.118Z,150.02007
2022-10-29T23:25:44.005Z,148.65116
2022-10-29T23:30:45.482Z,150.71141
2022-10-29T23:35:46.947Z,153.52381
2022-10-29T23:40:48.400Z,154.9589
2022-10-29T23:45:49.832Z,157.14879
2022-10-29T23:50:51.260Z,157.88889
2022-10-29T23:55:53.955Z,158.63415
